sensor_id;sensor_type;location;lat;lon;timestamp;P1;durP1;ratioP1;P2;durP2;ratioP2
60979;SDS011;46851;49.160;8.980;2023-05-10T00:00:30;2.20;;;1.40;;
60979;SDS011;46851;49.160;8.980;2023-05-10T00:02:56;1.63;;;1.40;;
60979;SDS011;46851;49.160;8.980;2023-05-10T00:05:22;1.85;;;1.67;;
60979;SDS011;46851;49.160;8.980;2023-05-10T00:07:48;4.88;;;1.80;;
60979;SDS011;46851;49.160;8.980;2023-05-10T00:10:14;3.22;;;2.08;;
60979;SDS011;46851;49.160;8.980;2023-05-10T00:12:40;2.58;;;2.38;;
60979;SDS011;46851;49.160;8.980;2023-05-10T00:15:06;3.35;;;2.72;;
60979;SDS011;46851;49.160;8.980;2023-05-10T00:17:33;3.42;;;3.13;;
60979;SDS011;46851;49.160;8.980;2023-05-10T00:19:59;4.30;;;3.33;;
60979;SDS011;46851;49.160;8.980;2023-05-10T00:22:25;4.80;;;3.45;;
60979;SDS011;46851;49.160;8.980;2023-05-10T00:24:51;4.65;;;3.65;;
60979;SDS011;46851;49.160;8.980;2023-05-10T00:27:17;4.43;;;3.90;;
60979;SDS011;46851;49.160;8.980;2023-05-10T00:29:43;5.28;;;3.95;;
60979;SDS011;46851;49.160;8.980;2023-05-10T00:32:09;5.93;;;4.40;;
60979;SDS011;46851;49.160;8.980;2023-05-10T00:34:35;4.78;;;4.38;;
60979;SDS011;46851;49.160;8.980;2023-05-10T00:37:01;4.28;;;3.88;;
60979;SDS011;46851;49.160;8.980;2023-05-10T00:39:27;4.65;;;4.25;;
60979;SDS011;46851;49.160;8.980;2023-05-10T00:41:53;4.63;;;4.22;;
60979;SDS011;46851;49.160;8.980;2023-05-10T00:44:19;5.03;;;4.30;;
60979;SDS011;46851;49.160;8.980;2023-05-10T00:46:46;4.15;;;3.75;;
60979;SDS011;46851;49.160;8.980;2023-05-10T00:49:12;4.10;;;3.70;;
60979;SDS011;46851;49.160;8.980;2023-05-10T00:51:38;6.60;;;3.95;;
60979;SDS011;46851;49.160;8.980;2023-05-10T00:54:04;4.07;;;3.67;;
60979;SDS011;46851;49.160;8.980;2023-05-10T00:56:31;3.47;;;3.17;;
60979;SDS011;46851;49.160;8.980;2023-05-10T00:58:57;2.83;;;2.63;;
60979;SDS011;46851;49.160;8.980;2023-05-10T01:01:23;3.50;;;3.20;;
60979;SDS011;46851;49.160;8.980;2023-05-10T01:03:50;4.03;;;3.05;;
60979;SDS011;46851;49.160;8.980;2023-05-10T01:06:16;5.53;;;3.25;;
60979;SDS011;46851;49.160;8.980;2023-05-10T01:08:42;4.05;;;3.65;;
60979;SDS011;46851;49.160;8.980;2023-05-10T01:11:08;4.30;;;3.88;;
60979;SDS011;46851;49.160;8.980;2023-05-10T01:16:01;4.65;;;3.83;;
60979;SDS011;46851;49.160;8.980;2023-05-10T01:18:28;4.35;;;3.95;;
60979;SDS011;46851;49.160;8.980;2023-05-10T01:20:59;4.03;;;3.72;;
60979;SDS011;46851;49.160;8.980;2023-05-10T01:23:31;4.40;;;4.00;;
60979;SDS011;46851;49.160;8.980;2023-05-10T01:26:07;5.28;;;3.90;;
60979;SDS011;46851;49.160;8.980;2023-05-10T01:31:53;9.80;;;4.20;;
60979;SDS011;46851;49.160;8.980;2023-05-10T01:34:23;5.22;;;4.80;;
60979;SDS011;46851;49.160;8.980;2023-05-10T01:36:53;7.13;;;4.72;;
60979;SDS011;46851;49.160;8.980;2023-05-10T01:39:23;5.15;;;4.65;;
60979;SDS011;46851;49.160;8.980;2023-05-10T01:46:58;4.72;;;3.55;;
60979;SDS011;46851;49.160;8.980;2023-05-10T01:49:29;4.65;;;3.60;;
60979;SDS011;46851;49.160;8.980;2023-05-10T01:51:59;3.78;;;3.47;;
60979;SDS011;46851;49.160;8.980;2023-05-10T01:54:26;4.40;;;4.00;;
60979;SDS011;46851;49.160;8.980;2023-05-10T01:56:57;5.13;;;3.80;;
60979;SDS011;46851;49.160;8.980;2023-05-10T01:59:27;4.38;;;3.97;;
60979;SDS011;46851;49.160;8.980;2023-05-10T02:01:55;4.20;;;3.78;;
60979;SDS011;46851;49.160;8.980;2023-05-10T02:04:23;3.72;;;3.42;;
60979;SDS011;46851;49.160;8.980;2023-05-10T02:06:49;4.00;;;3.47;;
60979;SDS011;46851;49.160;8.980;2023-05-10T02:09:16;4.63;;;3.42;;
60979;SDS011;46851;49.160;8.980;2023-05-10T02:11:43;4.43;;;4.03;;
60979;SDS011;46851;49.160;8.980;2023-05-10T02:14:09;4.82;;;3.70;;
60979;SDS011;46851;49.160;8.980;2023-05-10T02:16:36;4.05;;;3.65;;
60979;SDS011;46851;49.160;8.980;2023-05-10T02:19:03;5.85;;;4.40;;
60979;SDS011;46851;49.160;8.980;2023-05-10T02:21:30;4.60;;;3.95;;
60979;SDS011;46851;49.160;8.980;2023-05-10T02:23:57;4.72;;;4.22;;
60979;SDS011;46851;49.160;8.980;2023-05-10T02:26:24;5.97;;;3.95;;
60979;SDS011;46851;49.160;8.980;2023-05-10T02:28:51;6.47;;;3.75;;
60979;SDS011;46851;49.160;8.980;2023-05-10T02:31:18;5.22;;;3.75;;
60979;SDS011;46851;49.160;8.980;2023-05-10T02:33:45;6.00;;;3.95;;
60979;SDS011;46851;49.160;8.980;2023-05-10T02:36:11;4.78;;;3.70;;
60979;SDS011;46851;49.160;8.980;2023-05-10T02:38:38;3.67;;;3.38;;
60979;SDS011;46851;49.160;8.980;2023-05-10T02:41:04;4.78;;;3.75;;
60979;SDS011;46851;49.160;8.980;2023-05-10T02:43:32;4.50;;;3.42;;
60979;SDS011;46851;49.160;8.980;2023-05-10T02:45:58;4.10;;;3.75;;
60979;SDS011;46851;49.160;8.980;2023-05-10T02:48:24;4.97;;;3.65;;
60979;SDS011;46851;49.160;8.980;2023-05-10T02:50:51;5.13;;;3.83;;
60979;SDS011;46851;49.160;8.980;2023-05-10T02:53:18;6.90;;;4.53;;
60979;SDS011;46851;49.160;8.980;2023-05-10T02:55:47;5.53;;;4.22;;
60979;SDS011;46851;49.160;8.980;2023-05-10T02:58:15;4.38;;;3.97;;
60979;SDS011;46851;49.160;8.980;2023-05-10T03:00:43;4.43;;;4.03;;
60979;SDS011;46851;49.160;8.980;2023-05-10T03:03:09;5.68;;;3.95;;
60979;SDS011;46851;49.160;8.980;2023-05-10T03:05:35;5.10;;;4.38;;
60979;SDS011;46851;49.160;8.980;2023-05-10T03:08:01;7.55;;;4.30;;
60979;SDS011;46851;49.160;8.980;2023-05-10T03:10:29;4.72;;;4.22;;
60979;SDS011;46851;49.160;8.980;2023-05-10T03:15:25;5.07;;;4.57;;
60979;SDS011;46851;49.160;8.980;2023-05-10T03:18:01;9.95;;;4.57;;
60979;SDS011;46851;49.160;8.980;2023-05-10T03:20:31;6.72;;;4.50;;
60979;SDS011;46851;49.160;8.980;2023-05-10T03:23:04;5.35;;;4.47;;
60979;SDS011;46851;49.160;8.980;2023-05-10T03:25:33;5.70;;;4.88;;
60979;SDS011;46851;49.160;8.980;2023-05-10T03:28:01;6.32;;;5.72;;
60979;SDS011;46851;49.160;8.980;2023-05-10T03:30:27;7.95;;;6.00;;
60979;SDS011;46851;49.160;8.980;2023-05-10T03:32:53;8.00;;;6.43;;
60979;SDS011;46851;49.160;8.980;2023-05-10T03:35:19;10.55;;;7.20;;
60979;SDS011;46851;49.160;8.980;2023-05-10T03:37:45;7.90;;;7.10;;
60979;SDS011;46851;49.160;8.980;2023-05-10T03:40:12;9.60;;;7.82;;
60979;SDS011;46851;49.160;8.980;2023-05-10T03:42:38;9.45;;;8.07;;
60979;SDS011;46851;49.160;8.980;2023-05-10T03:45:04;10.60;;;8.77;;
60979;SDS011;46851;49.160;8.980;2023-05-10T03:47:30;9.95;;;8.63;;
60979;SDS011;46851;49.160;8.980;2023-05-10T03:49:57;11.13;;;7.88;;
60979;SDS011;46851;49.160;8.980;2023-05-10T03:52:23;9.27;;;8.27;;
60979;SDS011;46851;49.160;8.980;2023-05-10T03:54:49;10.68;;;8.40;;
60979;SDS011;46851;49.160;8.980;2023-05-10T03:57:15;9.38;;;8.43;;
60979;SDS011;46851;49.160;8.980;2023-05-10T03:59:41;10.45;;;8.80;;
60979;SDS011;46851;49.160;8.980;2023-05-10T04:02:07;9.77;;;8.68;;
60979;SDS011;46851;49.160;8.980;2023-05-10T04:04:33;11.30;;;8.95;;
60979;SDS011;46851;49.160;8.980;2023-05-10T04:06:59;12.93;;;9.25;;
60979;SDS011;46851;49.160;8.980;2023-05-10T04:09:25;16.00;;;9.98;;
60979;SDS011;46851;49.160;8.980;2023-05-10T04:11:51;11.32;;;9.30;;
60979;SDS011;46851;49.160;8.980;2023-05-10T04:14:17;9.98;;;8.93;;
60979;SDS011;46851;49.160;8.980;2023-05-10T04:16:43;11.10;;;8.90;;
60979;SDS011;46851;49.160;8.980;2023-05-10T04:19:09;10.57;;;8.55;;
60979;SDS011;46851;49.160;8.980;2023-05-10T04:21:36;10.90;;;8.98;;
60979;SDS011;46851;49.160;8.980;2023-05-10T04:24:02;10.88;;;9.02;;
60979;SDS011;46851;49.160;8.980;2023-05-10T04:26:28;12.52;;;8.40;;
60979;SDS011;46851;49.160;8.980;2023-05-10T04:28:54;9.55;;;8.25;;
60979;SDS011;46851;49.160;8.980;2023-05-10T04:31:20;11.27;;;9.25;;
60979;SDS011;46851;49.160;8.980;2023-05-10T04:33:46;12.88;;;9.40;;
60979;SDS011;46851;49.160;8.980;2023-05-10T04:36:12;10.85;;;8.68;;
60979;SDS011;46851;49.160;8.980;2023-05-10T04:38:38;10.25;;;9.10;;
60979;SDS011;46851;49.160;8.980;2023-05-10T04:41:08;11.00;;;8.88;;
60979;SDS011;46851;49.160;8.980;2023-05-10T04:43:34;10.45;;;8.25;;
60979;SDS011;46851;49.160;8.980;2023-05-10T04:46:01;11.45;;;8.63;;
60979;SDS011;46851;49.160;8.980;2023-05-10T04:48:27;10.40;;;8.90;;
60979;SDS011;46851;49.160;8.980;2023-05-10T04:50:53;10.30;;;8.63;;
60979;SDS011;46851;49.160;8.980;2023-05-10T04:53:19;14.32;;;8.70;;
60979;SDS011;46851;49.160;8.980;2023-05-10T04:55:45;11.85;;;8.43;;
60979;SDS011;46851;49.160;8.980;2023-05-10T04:58:11;10.38;;;8.40;;
60979;SDS011;46851;49.160;8.980;2023-05-10T05:00:37;11.70;;;8.73;;
60979;SDS011;46851;49.160;8.980;2023-05-10T05:03:03;12.95;;;8.85;;
60979;SDS011;46851;49.160;8.980;2023-05-10T05:05:30;12.40;;;9.20;;
60979;SDS011;46851;49.160;8.980;2023-05-10T05:07:56;11.75;;;8.55;;
60979;SDS011;46851;49.160;8.980;2023-05-10T05:10:22;10.27;;;8.35;;
60979;SDS011;46851;49.160;8.980;2023-05-10T05:12:48;12.50;;;8.73;;
60979;SDS011;46851;49.160;8.980;2023-05-10T05:15:14;11.43;;;8.45;;
60979;SDS011;46851;49.160;8.980;2023-05-10T05:17:41;8.98;;;7.78;;
60979;SDS011;46851;49.160;8.980;2023-05-10T05:20:07;9.90;;;7.68;;
60979;SDS011;46851;49.160;8.980;2023-05-10T05:22:33;9.85;;;8.05;;
60979;SDS011;46851;49.160;8.980;2023-05-10T05:25:01;10.02;;;7.88;;
60979;SDS011;46851;49.160;8.980;2023-05-10T05:27:28;12.25;;;7.93;;
60979;SDS011;46851;49.160;8.980;2023-05-10T05:29:54;8.30;;;7.30;;
60979;SDS011;46851;49.160;8.980;2023-05-10T05:32:20;10.05;;;7.40;;
60979;SDS011;46851;49.160;8.980;2023-05-10T05:34:47;9.90;;;8.20;;
60979;SDS011;46851;49.160;8.980;2023-05-10T05:37:13;11.82;;;7.00;;
60979;SDS011;46851;49.160;8.980;2023-05-10T05:39:39;10.27;;;7.30;;
60979;SDS011;46851;49.160;8.980;2023-05-10T05:42:05;9.07;;;6.47;;
60979;SDS011;46851;49.160;8.980;2023-05-10T05:44:31;8.48;;;6.78;;
60979;SDS011;46851;49.160;8.980;2023-05-10T05:46:57;7.95;;;6.28;;
60979;SDS011;46851;49.160;8.980;2023-05-10T05:49:23;9.05;;;6.80;;
60979;SDS011;46851;49.160;8.980;2023-05-10T05:51:49;8.23;;;7.20;;
60979;SDS011;46851;49.160;8.980;2023-05-10T05:54:15;11.23;;;7.05;;
60979;SDS011;46851;49.160;8.980;2023-05-10T05:56:41;8.23;;;7.05;;
60979;SDS011;46851;49.160;8.980;2023-05-10T05:59:09;8.98;;;6.63;;
60979;SDS011;46851;49.160;8.980;2023-05-10T06:01:35;7.00;;;6.30;;
60979;SDS011;46851;49.160;8.980;2023-05-10T06:04:01;14.02;;;6.47;;
60979;SDS011;46851;49.160;8.980;2023-05-10T06:06:27;7.05;;;6.35;;
60979;SDS011;46851;49.160;8.980;2023-05-10T06:08:53;9.82;;;5.90;;
60979;SDS011;46851;49.160;8.980;2023-05-10T06:11:20;6.95;;;6.25;;
60979;SDS011;46851;49.160;8.980;2023-05-10T06:13:46;7.55;;;5.15;;
60979;SDS011;46851;49.160;8.980;2023-05-10T06:16:12;10.77;;;5.18;;
60979;SDS011;46851;49.160;8.980;2023-05-10T06:18:38;5.63;;;4.22;;
60979;SDS011;46851;49.160;8.980;2023-05-10T06:21:04;4.90;;;4.05;;
60979;SDS011;46851;49.160;8.980;2023-05-10T06:23:30;8.85;;;4.82;;
60979;SDS011;46851;49.160;8.980;2023-05-10T06:25:57;8.48;;;4.80;;
60979;SDS011;46851;49.160;8.980;2023-05-10T06:28:23;5.13;;;3.80;;
60979;SDS011;46851;49.160;8.980;2023-05-10T06:30:49;11.48;;;4.50;;
60979;SDS011;46851;49.160;8.980;2023-05-10T06:33:15;8.77;;;4.68;;
60979;SDS011;46851;49.160;8.980;2023-05-10T06:35:41;9.75;;;4.88;;
60979;SDS011;46851;49.160;8.980;2023-05-10T06:38:07;12.15;;;6.18;;
60979;SDS011;46851;49.160;8.980;2023-05-10T06:40:33;7.25;;;4.13;;
60979;SDS011;46851;49.160;8.980;2023-05-10T06:42:59;9.98;;;4.30;;
60979;SDS011;46851;49.160;8.980;2023-05-10T06:45:25;9.52;;;4.03;;
60979;SDS011;46851;49.160;8.980;2023-05-10T06:47:51;5.88;;;3.80;;
60979;SDS011;46851;49.160;8.980;2023-05-10T06:50:17;5.07;;;3.47;;
60979;SDS011;46851;49.160;8.980;2023-05-10T06:52:43;5.10;;;3.58;;
60979;SDS011;46851;49.160;8.980;2023-05-10T06:55:09;8.02;;;3.30;;
60979;SDS011;46851;49.160;8.980;2023-05-10T06:57:35;7.63;;;3.78;;
60979;SDS011;46851;49.160;8.980;2023-05-10T07:00:02;17.05;;;3.90;;
60979;SDS011;46851;49.160;8.980;2023-05-10T07:02:31;5.43;;;3.20;;
60979;SDS011;46851;49.160;8.980;2023-05-10T07:14:01;4.88;;;3.03;;
60979;SDS011;46851;49.160;8.980;2023-05-10T07:16:27;4.03;;;2.88;;
60979;SDS011;46851;49.160;8.980;2023-05-10T07:18:53;4.03;;;3.15;;
60979;SDS011;46851;49.160;8.980;2023-05-10T07:21:19;3.00;;;2.47;;
60979;SDS011;46851;49.160;8.980;2023-05-10T07:23:45;3.47;;;2.28;;
60979;SDS011;46851;49.160;8.980;2023-05-10T07:26:12;9.57;;;2.10;;
60979;SDS011;46851;49.160;8.980;2023-05-10T07:28:39;3.00;;;1.70;;
60979;SDS011;46851;49.160;8.980;2023-05-10T07:31:05;5.07;;;1.50;;
60979;SDS011;46851;49.160;8.980;2023-05-10T07:33:31;2.55;;;1.67;;
60979;SDS011;46851;49.160;8.980;2023-05-10T07:35:57;2.63;;;1.52;;
60979;SDS011;46851;49.160;8.980;2023-05-10T07:38:23;3.22;;;1.40;;
60979;SDS011;46851;49.160;8.980;2023-05-10T07:40:49;2.28;;;1.25;;
60979;SDS011;46851;49.160;8.980;2023-05-10T07:43:15;3.95;;;1.20;;
60979;SDS011;46851;49.160;8.980;2023-05-10T07:45:41;12.27;;;1.50;;
60979;SDS011;46851;49.160;8.980;2023-05-10T07:48:08;7.85;;;1.60;;
60979;SDS011;46851;49.160;8.980;2023-05-10T07:50:34;2.58;;;1.20;;
60979;SDS011;46851;49.160;8.980;2023-05-10T07:53:00;3.83;;;1.30;;
60979;SDS011;46851;49.160;8.980;2023-05-10T07:55:26;6.32;;;1.45;;
60979;SDS011;46851;49.160;8.980;2023-05-10T07:57:52;1.45;;;1.00;;
60979;SDS011;46851;49.160;8.980;2023-05-10T08:00:18;2.60;;;1.50;;
60979;SDS011;46851;49.160;8.980;2023-05-10T08:02:44;6.63;;;1.92;;
60979;SDS011;46851;49.160;8.980;2023-05-10T08:05:10;2.20;;;1.58;;
60979;SDS011;46851;49.160;8.980;2023-05-10T08:07:36;5.45;;;1.75;;
60979;SDS011;46851;49.160;8.980;2023-05-10T08:10:04;3.17;;;1.92;;
60979;SDS011;46851;49.160;8.980;2023-05-10T08:12:30;6.18;;;2.15;;
60979;SDS011;46851;49.160;8.980;2023-05-10T08:14:56;6.85;;;1.98;;
60979;SDS011;46851;49.160;8.980;2023-05-10T08:17:22;4.32;;;2.10;;
60979;SDS011;46851;49.160;8.980;2023-05-10T08:19:48;9.73;;;1.92;;
60979;SDS011;46851;49.160;8.980;2023-05-10T08:22:14;5.32;;;1.33;;
60979;SDS011;46851;49.160;8.980;2023-05-10T08:24:40;1.42;;;1.30;;
60979;SDS011;46851;49.160;8.980;2023-05-10T08:27:07;2.55;;;1.70;;
60979;SDS011;46851;49.160;8.980;2023-05-10T08:29:33;2.70;;;1.20;;
60979;SDS011;46851;49.160;8.980;2023-05-10T08:31:59;5.32;;;1.40;;
60979;SDS011;46851;49.160;8.980;2023-05-10T08:34:26;7.03;;;1.50;;
60979;SDS011;46851;49.160;8.980;2023-05-10T08:36:52;9.75;;;1.85;;
60979;SDS011;46851;49.160;8.980;2023-05-10T08:39:18;8.80;;;2.38;;
60979;SDS011;46851;49.160;8.980;2023-05-10T08:41:44;2.15;;;1.20;;
60979;SDS011;46851;49.160;8.980;2023-05-10T08:44:10;2.50;;;1.20;;
60979;SDS011;46851;49.160;8.980;2023-05-10T08:46:36;4.25;;;1.73;;
60979;SDS011;46851;49.160;8.980;2023-05-10T08:49:04;3.17;;;1.20;;
60979;SDS011;46851;49.160;8.980;2023-05-10T08:51:35;2.75;;;1.27;;
60979;SDS011;46851;49.160;8.980;2023-05-10T08:54:02;5.97;;;1.35;;
60979;SDS011;46851;49.160;8.980;2023-05-10T08:56:29;3.50;;;1.20;;
60979;SDS011;46851;49.160;8.980;2023-05-10T08:58:55;3.05;;;1.20;;
60979;SDS011;46851;49.160;8.980;2023-05-10T09:01:22;5.57;;;1.38;;
60979;SDS011;46851;49.160;8.980;2023-05-10T09:03:48;6.28;;;1.33;;
60979;SDS011;46851;49.160;8.980;2023-05-10T09:06:14;4.18;;;1.10;;
60979;SDS011;46851;49.160;8.980;2023-05-10T09:08:41;5.20;;;1.00;;
60979;SDS011;46851;49.160;8.980;2023-05-10T09:11:08;2.47;;;0.90;;
60979;SDS011;46851;49.160;8.980;2023-05-10T09:13:35;6.05;;;1.30;;
60979;SDS011;46851;49.160;8.980;2023-05-10T09:16:01;3.65;;;1.05;;
60979;SDS011;46851;49.160;8.980;2023-05-10T09:18:28;5.45;;;1.52;;
60979;SDS011;46851;49.160;8.980;2023-05-10T09:20:54;4.60;;;1.20;;
60979;SDS011;46851;49.160;8.980;2023-05-10T09:23:20;7.55;;;1.23;;
60979;SDS011;46851;49.160;8.980;2023-05-10T09:25:46;2.78;;;1.48;;
60979;SDS011;46851;49.160;8.980;2023-05-10T09:28:12;3.83;;;1.60;;
60979;SDS011;46851;49.160;8.980;2023-05-10T09:30:38;2.50;;;1.60;;
60979;SDS011;46851;49.160;8.980;2023-05-10T09:33:04;9.70;;;2.50;;
60979;SDS011;46851;49.160;8.980;2023-05-10T09:35:31;8.48;;;2.30;;
60979;SDS011;46851;49.160;8.980;2023-05-10T09:38:02;12.27;;;1.90;;
60979;SDS011;46851;49.160;8.980;2023-05-10T09:40:28;1.73;;;0.95;;
60979;SDS011;46851;49.160;8.980;2023-05-10T09:42:56;3.72;;;1.00;;
60979;SDS011;46851;49.160;8.980;2023-05-10T09:45:23;11.63;;;1.65;;
60979;SDS011;46851;49.160;8.980;2023-05-10T09:47:49;2.05;;;1.02;;
60979;SDS011;46851;49.160;8.980;2023-05-10T09:50:15;8.77;;;1.20;;
60979;SDS011;46851;49.160;8.980;2023-05-10T09:52:49;1.80;;;1.13;;
60979;SDS011;46851;49.160;8.980;2023-05-10T09:55:16;6.22;;;1.30;;
60979;SDS011;46851;49.160;8.980;2023-05-10T09:57:42;7.18;;;1.38;;
60979;SDS011;46851;49.160;8.980;2023-05-10T10:00:09;3.13;;;1.00;;
60979;SDS011;46851;49.160;8.980;2023-05-10T10:02:35;2.13;;;1.55;;
60979;SDS011;46851;49.160;8.980;2023-05-10T10:05:01;5.07;;;1.20;;
60979;SDS011;46851;49.160;8.980;2023-05-10T10:07:30;2.08;;;1.02;;
60979;SDS011;46851;49.160;8.980;2023-05-10T10:09:56;2.35;;;1.50;;
60979;SDS011;46851;49.160;8.980;2023-05-10T10:12:23;3.45;;;1.33;;
60979;SDS011;46851;49.160;8.980;2023-05-10T10:14:49;6.47;;;1.38;;
60979;SDS011;46851;49.160;8.980;2023-05-10T10:17:15;1.38;;;1.20;;
60979;SDS011;46851;49.160;8.980;2023-05-10T10:19:42;3.85;;;1.75;;
60979;SDS011;46851;49.160;8.980;2023-05-10T10:22:08;2.30;;;1.33;;
60979;SDS011;46851;49.160;8.980;2023-05-10T10:24:37;2.50;;;1.35;;
60979;SDS011;46851;49.160;8.980;2023-05-10T10:34:58;2.25;;;1.23;;
60979;SDS011;46851;49.160;8.980;2023-05-10T10:37:40;5.20;;;1.33;;
60979;SDS011;46851;49.160;8.980;2023-05-10T10:40:22;4.40;;;1.50;;
60979;SDS011;46851;49.160;8.980;2023-05-10T10:42:49;2.83;;;1.45;;
60979;SDS011;46851;49.160;8.980;2023-05-10T10:45:15;4.15;;;1.90;;
60979;SDS011;46851;49.160;8.980;2023-05-10T10:47:41;1.88;;;1.00;;
60979;SDS011;46851;49.160;8.980;2023-05-10T10:50:08;5.97;;;1.77;;
60979;SDS011;46851;49.160;8.980;2023-05-10T11:02:52;3.88;;;1.23;;
60979;SDS011;46851;49.160;8.980;2023-05-10T11:10:22;5.03;;;1.30;;
60979;SDS011;46851;49.160;8.980;2023-05-10T11:13:01;2.40;;;0.90;;
60979;SDS011;46851;49.160;8.980;2023-05-10T11:15:40;3.60;;;1.30;;
60979;SDS011;46851;49.160;8.980;2023-05-10T11:18:25;5.72;;;1.10;;
60979;SDS011;46851;49.160;8.980;2023-05-10T11:20:51;5.40;;;0.90;;
60979;SDS011;46851;49.160;8.980;2023-05-10T11:23:18;2.83;;;0.90;;
60979;SDS011;46851;49.160;8.980;2023-05-10T11:25:45;5.10;;;1.10;;
60979;SDS011;46851;49.160;8.980;2023-05-10T11:28:11;9.80;;;1.35;;
60979;SDS011;46851;49.160;8.980;2023-05-10T11:30:38;9.48;;;1.40;;
60979;SDS011;46851;49.160;8.980;2023-05-10T11:33:05;12.75;;;1.55;;
60979;SDS011;46851;49.160;8.980;2023-05-10T11:35:36;21.05;;;2.05;;
60979;SDS011;46851;49.160;8.980;2023-05-10T11:38:04;18.02;;;2.45;;
60979;SDS011;46851;49.160;8.980;2023-05-10T11:40:30;16.75;;;2.28;;
60979;SDS011;46851;49.160;8.980;2023-05-10T11:42:56;22.23;;;1.95;;
60979;SDS011;46851;49.160;8.980;2023-05-10T11:45:25;2.83;;;1.20;;
60979;SDS011;46851;49.160;8.980;2023-05-10T11:47:53;8.20;;;1.17;;
60979;SDS011;46851;49.160;8.980;2023-05-10T11:50:19;7.10;;;1.20;;
60979;SDS011;46851;49.160;8.980;2023-05-10T11:52:45;4.68;;;1.17;;
60979;SDS011;46851;49.160;8.980;2023-05-10T11:55:11;5.80;;;1.15;;
60979;SDS011;46851;49.160;8.980;2023-05-10T11:57:37;1.45;;;1.20;;
60979;SDS011;46851;49.160;8.980;2023-05-10T12:00:06;3.67;;;1.05;;
60979;SDS011;46851;49.160;8.980;2023-05-10T12:02:32;1.92;;;1.25;;
60979;SDS011;46851;49.160;8.980;2023-05-10T12:04:58;6.65;;;1.45;;
60979;SDS011;46851;49.160;8.980;2023-05-10T12:07:25;18.73;;;2.10;;
60979;SDS011;46851;49.160;8.980;2023-05-10T12:10:08;23.60;;;2.10;;
60979;SDS011;46851;49.160;8.980;2023-05-10T12:15:12;21.63;;;2.25;;
60979;SDS011;46851;49.160;8.980;2023-05-10T12:17:43;10.30;;;2.28;;
60979;SDS011;46851;49.160;8.980;2023-05-10T12:20:15;11.60;;;2.00;;
60979;SDS011;46851;49.160;8.980;2023-05-10T12:22:43;11.82;;;2.33;;
60979;SDS011;46851;49.160;8.980;2023-05-10T12:25:09;9.48;;;2.00;;
60979;SDS011;46851;49.160;8.980;2023-05-10T12:27:35;9.48;;;2.30;;
60979;SDS011;46851;49.160;8.980;2023-05-10T12:30:02;5.63;;;2.00;;
60979;SDS011;46851;49.160;8.980;2023-05-10T12:32:41;8.75;;;2.10;;
60979;SDS011;46851;49.160;8.980;2023-05-10T12:35:07;7.53;;;1.70;;
60979;SDS011;46851;49.160;8.980;2023-05-10T12:37:33;5.05;;;1.67;;
60979;SDS011;46851;49.160;8.980;2023-05-10T12:40:04;8.40;;;1.52;;
60979;SDS011;46851;49.160;8.980;2023-05-10T12:42:30;7.47;;;1.73;;
60979;SDS011;46851;49.160;8.980;2023-05-10T12:44:57;5.10;;;1.80;;
60979;SDS011;46851;49.160;8.980;2023-05-10T12:47:23;5.47;;;1.40;;
60979;SDS011;46851;49.160;8.980;2023-05-10T12:49:49;5.38;;;1.48;;
60979;SDS011;46851;49.160;8.980;2023-05-10T12:52:16;13.95;;;2.15;;
60979;SDS011;46851;49.160;8.980;2023-05-10T12:54:42;7.80;;;1.60;;
60979;SDS011;46851;49.160;8.980;2023-05-10T12:57:08;7.40;;;4.20;;
60979;SDS011;46851;49.160;8.980;2023-05-10T12:59:34;6.28;;;1.38;;
60979;SDS011;46851;49.160;8.980;2023-05-10T13:02:00;9.80;;;1.65;;
60979;SDS011;46851;49.160;8.980;2023-05-10T13:04:26;13.88;;;2.70;;
60979;SDS011;46851;49.160;8.980;2023-05-10T13:06:52;12.30;;;1.95;;
60979;SDS011;46851;49.160;8.980;2023-05-10T13:09:18;3.83;;;1.20;;
60979;SDS011;46851;49.160;8.980;2023-05-10T13:11:45;4.43;;;1.00;;
60979;SDS011;46851;49.160;8.980;2023-05-10T13:14:12;11.65;;;1.25;;
60979;SDS011;46851;49.160;8.980;2023-05-10T13:16:39;4.20;;;0.85;;
60979;SDS011;46851;49.160;8.980;2023-05-10T13:19:05;3.70;;;0.90;;
60979;SDS011;46851;49.160;8.980;2023-05-10T13:21:31;3.55;;;0.90;;
60979;SDS011;46851;49.160;8.980;2023-05-10T13:23:57;8.98;;;1.05;;
60979;SDS011;46851;49.160;8.980;2023-05-10T13:26:23;3.85;;;1.00;;
60979;SDS011;46851;49.160;8.980;2023-05-10T13:28:50;3.33;;;0.80;;
60979;SDS011;46851;49.160;8.980;2023-05-10T13:31:16;5.35;;;1.10;;
60979;SDS011;46851;49.160;8.980;2023-05-10T13:33:42;9.20;;;1.10;;
60979;SDS011;46851;49.160;8.980;2023-05-10T13:36:08;2.17;;;0.82;;
60979;SDS011;46851;49.160;8.980;2023-05-10T13:38:34;1.77;;;0.70;;
60979;SDS011;46851;49.160;8.980;2023-05-10T13:41:00;3.53;;;0.80;;
60979;SDS011;46851;49.160;8.980;2023-05-10T13:43:26;3.78;;;1.05;;
60979;SDS011;46851;49.160;8.980;2023-05-10T13:45:52;2.95;;;0.95;;
60979;SDS011;46851;49.160;8.980;2023-05-10T13:48:18;2.88;;;1.40;;
60979;SDS011;46851;49.160;8.980;2023-05-10T13:50:44;3.85;;;0.93;;
60979;SDS011;46851;49.160;8.980;2023-05-10T13:53:11;3.90;;;1.10;;
60979;SDS011;46851;49.160;8.980;2023-05-10T13:55:37;4.53;;;1.00;;
60979;SDS011;46851;49.160;8.980;2023-05-10T13:58:03;13.63;;;1.67;;
60979;SDS011;46851;49.160;8.980;2023-05-10T14:00:29;17.17;;;1.50;;
60979;SDS011;46851;49.160;8.980;2023-05-10T14:02:56;11.57;;;2.00;;
60979;SDS011;46851;49.160;8.980;2023-05-10T14:05:22;6.90;;;1.75;;
60979;SDS011;46851;49.160;8.980;2023-05-10T14:07:48;12.80;;;1.58;;
60979;SDS011;46851;49.160;8.980;2023-05-10T14:10:14;17.42;;;1.83;;
60979;SDS011;46851;49.160;8.980;2023-05-10T14:12:40;9.85;;;1.42;;
60979;SDS011;46851;49.160;8.980;2023-05-10T14:15:06;15.65;;;1.88;;
60979;SDS011;46851;49.160;8.980;2023-05-10T14:17:32;7.45;;;1.30;;
60979;SDS011;46851;49.160;8.980;2023-05-10T14:19:58;3.28;;;1.30;;
60979;SDS011;46851;49.160;8.980;2023-05-10T14:22:24;4.65;;;1.27;;
60979;SDS011;46851;49.160;8.980;2023-05-10T14:24:50;4.90;;;1.17;;
60979;SDS011;46851;49.160;8.980;2023-05-10T14:27:16;4.32;;;1.20;;
60979;SDS011;46851;49.160;8.980;2023-05-10T14:29:42;11.90;;;2.35;;
60979;SDS011;46851;49.160;8.980;2023-05-10T14:32:08;11.23;;;1.50;;
60979;SDS011;46851;49.160;8.980;2023-05-10T14:34:35;13.48;;;1.50;;
60979;SDS011;46851;49.160;8.980;2023-05-10T14:37:01;13.60;;;1.58;;
60979;SDS011;46851;49.160;8.980;2023-05-10T14:39:27;11.45;;;2.35;;
60979;SDS011;46851;49.160;8.980;2023-05-10T14:41:56;11.17;;;1.43;;
60979;SDS011;46851;49.160;8.980;2023-05-10T14:44:22;9.18;;;1.52;;
60979;SDS011;46851;49.160;8.980;2023-05-10T14:46:48;5.40;;;3.08;;
60979;SDS011;46851;49.160;8.980;2023-05-10T14:49:15;7.65;;;1.95;;
60979;SDS011;46851;49.160;8.980;2023-05-10T14:51:40;3.58;;;1.10;;
60979;SDS011;46851;49.160;8.980;2023-05-10T14:54:06;5.65;;;1.48;;
60979;SDS011;46851;49.160;8.980;2023-05-10T14:56:32;3.38;;;1.35;;
60979;SDS011;46851;49.160;8.980;2023-05-10T14:58:58;4.28;;;1.20;;
60979;SDS011;46851;49.160;8.980;2023-05-10T15:01:25;2.92;;;0.95;;
60979;SDS011;46851;49.160;8.980;2023-05-10T15:03:51;5.88;;;1.10;;
60979;SDS011;46851;49.160;8.980;2023-05-10T15:06:17;4.38;;;1.00;;
60979;SDS011;46851;49.160;8.980;2023-05-10T15:08:49;4.97;;;1.10;;
60979;SDS011;46851;49.160;8.980;2023-05-10T15:11:16;4.10;;;1.55;;
60979;SDS011;46851;49.160;8.980;2023-05-10T15:13:42;2.25;;;1.10;;
60979;SDS011;46851;49.160;8.980;2023-05-10T15:16:08;2.50;;;1.00;;
60979;SDS011;46851;49.160;8.980;2023-05-10T15:18:35;7.90;;;2.15;;
60979;SDS011;46851;49.160;8.980;2023-05-10T15:21:01;4.70;;;0.90;;
60979;SDS011;46851;49.160;8.980;2023-05-10T15:23:28;6.07;;;1.30;;
60979;SDS011;46851;49.160;8.980;2023-05-10T15:25:54;2.75;;;1.20;;
60979;SDS011;46851;49.160;8.980;2023-05-10T15:28:21;2.15;;;0.93;;
60979;SDS011;46851;49.160;8.980;2023-05-10T15:30:47;5.57;;;1.20;;